sensor_id;sensor_type;location;lat;lon;timestamp;temperature;humidity
45729;DHT22;31439;53.512;10.206;2023-02-25T00:02:02;4.40;99.90
45729;DHT22;31439;53.512;10.206;2023-02-25T00:04:28;4.40;99.90
45729;DHT22;31439;53.512;10.206;2023-02-25T00:06:53;4.40;99.90
45729;DHT22;31439;53.512;10.206;2023-02-25T00:09:20;4.40;99.90
45729;DHT22;31439;53.512;10.206;2023-02-25T00:11:45;4.50;99.90
45729;DHT22;31439;53.512;10.206;2023-02-25T00:14:11;4.40;99.90
45729;DHT22;31439;53.512;10.206;2023-02-25T00:16:36;4.30;99.90
45729;DHT22;31439;53.512;10.206;2023-02-25T00:19:02;4.30;99.90
45729;DHT22;31439;53.512;10.206;2023-02-25T00:21:28;4.20;99.90
45729;DHT22;31439;53.512;10.206;2023-02-25T00:23:54;4.30;99.90
45729;DHT22;31439;53.512;10.206;2023-02-25T00:26:21;4.30;99.90
45729;DHT22;31439;53.512;10.206;2023-02-25T00:28:47;4.20;99.90
45729;DHT22;31439;53.512;10.206;2023-02-25T00:31:17;4.30;99.90
45729;DHT22;31439;53.512;10.206;2023-02-25T00:33:43;4.30;99.90
45729;DHT22;31439;53.512;10.206;2023-02-25T00:36:12;4.30;99.90
45729;DHT22;31439;53.512;10.206;2023-02-25T00:38:38;4.30;99.90
45729;DHT22;31439;53.512;10.206;2023-02-25T00:41:10;4.40;99.90
45729;DHT22;31439;53.512;10.206;2023-02-25T00:43:38;4.30;99.90
45729;DHT22;31439;53.512;10.206;2023-02-25T00:46:04;4.30;99.90
45729;DHT22;31439;53.512;10.206;2023-02-25T00:48:29;4.30;99.90
45729;DHT22;31439;53.512;10.206;2023-02-25T00:50:55;4.30;99.90
45729;DHT22;31439;53.512;10.206;2023-02-25T00:53:20;4.40;99.90
45729;DHT22;31439;53.512;10.206;2023-02-25T00:55:46;4.40;99.90
45729;DHT22;31439;53.512;10.206;2023-02-25T00:58:11;4.40;99.90
45729;DHT22;31439;53.512;10.206;2023-02-25T01:00:37;4.40;99.90
45729;DHT22;31439;53.512;10.206;2023-02-25T01:03:03;4.40;99.90
45729;DHT22;31439;53.512;10.206;2023-02-25T01:05:28;4.40;99.90
45729;DHT22;31439;53.512;10.206;2023-02-25T01:07:54;4.40;99.90
45729;DHT22;31439;53.512;10.206;2023-02-25T01:10:19;4.40;99.90
45729;DHT22;31439;53.512;10.206;2023-02-25T01:12:45;4.40;99.90
45729;DHT22;31439;53.512;10.206;2023-02-25T01:15:11;4.40;99.90
45729;DHT22;31439;53.512;10.206;2023-02-25T01:17:37;4.40;99.90
45729;DHT22;31439;53.512;10.206;2023-02-25T01:20:03;4.40;99.90
45729;DHT22;31439;53.512;10.206;2023-02-25T01:22:30;4.30;99.90
45729;DHT22;31439;53.512;10.206;2023-02-25T01:24:56;4.30;99.90
45729;DHT22;31439;53.512;10.206;2023-02-25T01:27:22;4.30;99.90
45729;DHT22;31439;53.512;10.206;2023-02-25T01:29:47;4.30;99.90
45729;DHT22;31439;53.512;10.206;2023-02-25T01:32:13;4.40;99.90
45729;DHT22;31439;53.512;10.206;2023-02-25T01:34:40;4.30;99.90
45729;DHT22;31439;53.512;10.206;2023-02-25T01:37:05;4.40;99.90
45729;DHT22;31439;53.512;10.206;2023-02-25T01:39:31;4.20;99.90
45729;DHT22;31439;53.512;10.206;2023-02-25T01:41:59;4.30;99.90
45729;DHT22;31439;53.512;10.206;2023-02-25T01:47:40;4.30;99.90
45729;DHT22;31439;53.512;10.206;2023-02-25T01:50:06;4.30;99.90
45729;DHT22;31439;53.512;10.206;2023-02-25T01:52:32;4.30;99.90
45729;DHT22;31439;53.512;10.206;2023-02-25T01:54:58;4.30;99.90
45729;DHT22;31439;53.512;10.206;2023-02-25T01:57:25;4.20;99.90
45729;DHT22;31439;53.512;10.206;2023-02-25T01:59:52;4.20;99.90
45729;DHT22;31439;53.512;10.206;2023-02-25T02:02:21;4.20;99.90
45729;DHT22;31439;53.512;10.206;2023-02-25T02:04:48;4.20;99.90
45729;DHT22;31439;53.512;10.206;2023-02-25T02:07:16;4.20;99.90
45729;DHT22;31439;53.512;10.206;2023-02-25T02:09:42;4.20;99.90
45729;DHT22;31439;53.512;10.206;2023-02-25T02:12:25;4.20;99.90
45729;DHT22;31439;53.512;10.206;2023-02-25T02:14:52;4.20;99.90
45729;DHT22;31439;53.512;10.206;2023-02-25T02:17:26;4.20;99.90
45729;DHT22;31439;53.512;10.206;2023-02-25T02:28:08;4.20;99.90
45729;DHT22;31439;53.512;10.206;2023-02-25T02:41:53;4.30;99.90
45729;DHT22;31439;53.512;10.206;2023-02-25T02:44:55;4.30;99.90
45729;DHT22;31439;53.512;10.206;2023-02-25T02:47:34;4.30;99.90
45729;DHT22;31439;53.512;10.206;2023-02-25T02:50:11;4.30;99.90
45729;DHT22;31439;53.512;10.206;2023-02-25T02:52:41;4.30;99.90
45729;DHT22;31439;53.512;10.206;2023-02-25T02:55:17;4.30;99.90
45729;DHT22;31439;53.512;10.206;2023-02-25T02:57:47;4.30;99.90
45729;DHT22;31439;53.512;10.206;2023-02-25T03:00:16;4.30;99.90
45729;DHT22;31439;53.512;10.206;2023-02-25T03:02:47;4.20;99.90
45729;DHT22;31439;53.512;10.206;2023-02-25T03:05:15;4.10;99.90
45729;DHT22;31439;53.512;10.206;2023-02-25T03:07:52;4.10;99.90
45729;DHT22;31439;53.512;10.206;2023-02-25T03:10:21;4.10;99.90
45729;DHT22;31439;53.512;10.206;2023-02-25T03:12:47;4.10;99.90
45729;DHT22;31439;53.512;10.206;2023-02-25T03:15:13;4.00;99.90
45729;DHT22;31439;53.512;10.206;2023-02-25T03:17:43;4.10;99.90
45729;DHT22;31439;53.512;10.206;2023-02-25T03:20:15;4.00;99.90
45729;DHT22;31439;53.512;10.206;2023-02-25T03:22:45;4.10;99.90
45729;DHT22;31439;53.512;10.206;2023-02-25T03:25:26;4.00;99.90
45729;DHT22;31439;53.512;10.206;2023-02-25T03:28:03;4.00;99.90
45729;DHT22;31439;53.512;10.206;2023-02-25T03:33:07;4.10;99.90
45729;DHT22;31439;53.512;10.206;2023-02-25T03:35:34;4.10;99.90
45729;DHT22;31439;53.512;10.206;2023-02-25T03:38:08;4.00;99.90
45729;DHT22;31439;53.512;10.206;2023-02-25T03:40:37;4.10;99.90
45729;DHT22;31439;53.512;10.206;2023-02-25T03:43:16;4.10;99.90
45729;DHT22;31439;53.512;10.206;2023-02-25T03:45:44;4.00;99.90
45729;DHT22;31439;53.512;10.206;2023-02-25T03:48:11;4.00;99.90
45729;DHT22;31439;53.512;10.206;2023-02-25T03:50:47;4.10;99.90
45729;DHT22;31439;53.512;10.206;2023-02-25T03:53:15;4.10;99.90
45729;DHT22;31439;53.512;10.206;2023-02-25T03:55:41;4.10;99.90
45729;DHT22;31439;53.512;10.206;2023-02-25T03:58:08;4.10;99.90
45729;DHT22;31439;53.512;10.206;2023-02-25T04:00:34;4.10;99.90
45729;DHT22;31439;53.512;10.206;2023-02-25T04:03:00;4.00;99.90
45729;DHT22;31439;53.512;10.206;2023-02-25T04:05:26;4.00;99.90
45729;DHT22;31439;53.512;10.206;2023-02-25T04:07:53;4.10;99.90
45729;DHT22;31439;53.512;10.206;2023-02-25T04:10:19;4.10;99.90
45729;DHT22;31439;53.512;10.206;2023-02-25T04:12:46;4.00;99.90
45729;DHT22;31439;53.512;10.206;2023-02-25T04:15:12;4.00;99.90
45729;DHT22;31439;53.512;10.206;2023-02-25T04:17:41;4.00;99.90
45729;DHT22;31439;53.512;10.206;2023-02-25T04:20:07;4.00;99.90
45729;DHT22;31439;53.512;10.206;2023-02-25T04:22:33;4.00;99.90
45729;DHT22;31439;53.512;10.206;2023-02-25T04:24:59;4.00;99.90
45729;DHT22;31439;53.512;10.206;2023-02-25T04:27:24;4.00;99.90
45729;DHT22;31439;53.512;10.206;2023-02-25T04:29:51;4.00;99.90
45729;DHT22;31439;53.512;10.206;2023-02-25T04:32:17;3.90;99.90
45729;DHT22;31439;53.512;10.206;2023-02-25T04:34:43;3.80;99.90
45729;DHT22;31439;53.512;10.206;2023-02-25T04:37:08;3.70;99.90
45729;DHT22;31439;53.512;10.206;2023-02-25T04:39:34;3.70;99.90
45729;DHT22;31439;53.512;10.206;2023-02-25T04:42:01;3.70;99.90
45729;DHT22;31439;53.512;10.206;2023-02-25T04:44:27;3.50;99.90
45729;DHT22;31439;53.512;10.206;2023-02-25T04:46:53;3.50;99.90
45729;DHT22;31439;53.512;10.206;2023-02-25T04:49:20;3.50;99.90
45729;DHT22;31439;53.512;10.206;2023-02-25T04:51:47;3.40;99.90
45729;DHT22;31439;53.512;10.206;2023-02-25T04:54:14;3.50;99.90
45729;DHT22;31439;53.512;10.206;2023-02-25T04:56:40;3.60;99.90
45729;DHT22;31439;53.512;10.206;2023-02-25T04:59:06;3.50;99.90
45729;DHT22;31439;53.512;10.206;2023-02-25T05:01:32;3.50;99.90
45729;DHT22;31439;53.512;10.206;2023-02-25T05:04:01;3.40;99.90
45729;DHT22;31439;53.512;10.206;2023-02-25T05:06:27;3.50;99.90
45729;DHT22;31439;53.512;10.206;2023-02-25T05:08:54;3.40;99.90
45729;DHT22;31439;53.512;10.206;2023-02-25T05:11:23;3.40;99.90
45729;DHT22;31439;53.512;10.206;2023-02-25T05:13:49;3.50;99.90
45729;DHT22;31439;53.512;10.206;2023-02-25T05:16:16;3.50;99.90
45729;DHT22;31439;53.512;10.206;2023-02-25T05:18:44;3.40;99.90
45729;DHT22;31439;53.512;10.206;2023-02-25T05:21:19;3.40;99.90
45729;DHT22;31439;53.512;10.206;2023-02-25T05:23:47;3.50;99.90
45729;DHT22;31439;53.512;10.206;2023-02-25T05:26:15;3.40;99.90
45729;DHT22;31439;53.512;10.206;2023-02-25T05:28:41;3.40;99.90
45729;DHT22;31439;53.512;10.206;2023-02-25T05:31:09;3.50;99.90
45729;DHT22;31439;53.512;10.206;2023-02-25T05:33:36;3.40;99.90
45729;DHT22;31439;53.512;10.206;2023-02-25T05:36:10;3.40;99.90
45729;DHT22;31439;53.512;10.206;2023-02-25T05:38:37;3.40;99.90
45729;DHT22;31439;53.512;10.206;2023-02-25T05:41:03;3.30;99.90
45729;DHT22;31439;53.512;10.206;2023-02-25T05:43:32;3.40;99.90
45729;DHT22;31439;53.512;10.206;2023-02-25T05:45:58;3.50;99.90
45729;DHT22;31439;53.512;10.206;2023-02-25T05:48:26;3.50;99.90
45729;DHT22;31439;53.512;10.206;2023-02-25T05:51:03;3.50;99.90
45729;DHT22;31439;53.512;10.206;2023-02-25T05:53:28;3.40;99.90
45729;DHT22;31439;53.512;10.206;2023-02-25T05:55:54;3.50;99.90
45729;DHT22;31439;53.512;10.206;2023-02-25T05:58:20;3.50;99.90
45729;DHT22;31439;53.512;10.206;2023-02-25T06:00:46;3.50;99.90
45729;DHT22;31439;53.512;10.206;2023-02-25T06:03:11;3.40;99.90
45729;DHT22;31439;53.512;10.206;2023-02-25T06:05:41;3.50;99.90
45729;DHT22;31439;53.512;10.206;2023-02-25T06:08:08;3.50;99.90
45729;DHT22;31439;53.512;10.206;2023-02-25T06:10:35;3.60;99.90
45729;DHT22;31439;53.512;10.206;2023-02-25T06:13:04;3.60;99.90
45729;DHT22;31439;53.512;10.206;2023-02-25T06:15:30;3.60;99.90
45729;DHT22;31439;53.512;10.206;2023-02-25T06:17:55;3.50;99.90
45729;DHT22;31439;53.512;10.206;2023-02-25T06:20:21;3.50;99.90
45729;DHT22;31439;53.512;10.206;2023-02-25T06:22:50;3.40;99.90
45729;DHT22;31439;53.512;10.206;2023-02-25T06:25:16;3.40;99.90
45729;DHT22;31439;53.512;10.206;2023-02-25T06:27:42;3.40;99.90
45729;DHT22;31439;53.512;10.206;2023-02-25T06:30:08;3.40;99.90
45729;DHT22;31439;53.512;10.206;2023-02-25T06:32:34;3.40;99.90
45729;DHT22;31439;53.512;10.206;2023-02-25T06:35:00;3.60;99.90
45729;DHT22;31439;53.512;10.206;2023-02-25T06:37:26;3.50;99.90
45729;DHT22;31439;53.512;10.206;2023-02-25T06:39:52;3.50;99.90
45729;DHT22;31439;53.512;10.206;2023-02-25T06:42:18;3.40;99.90
45729;DHT22;31439;53.512;10.206;2023-02-25T06:44:44;3.50;99.90
45729;DHT22;31439;53.512;10.206;2023-02-25T06:47:09;3.40;99.90
45729;DHT22;31439;53.512;10.206;2023-02-25T06:49:35;3.60;99.90
45729;DHT22;31439;53.512;10.206;2023-02-25T06:52:00;3.50;99.90
45729;DHT22;31439;53.512;10.206;2023-02-25T06:54:26;3.40;99.90
45729;DHT22;31439;53.512;10.206;2023-02-25T06:56:53;3.60;99.90
45729;DHT22;31439;53.512;10.206;2023-02-25T06:59:19;3.50;99.90
45729;DHT22;31439;53.512;10.206;2023-02-25T07:01:44;3.50;99.90
45729;DHT22;31439;53.512;10.206;2023-02-25T07:04:15;3.40;99.90
45729;DHT22;31439;53.512;10.206;2023-02-25T07:06:41;3.30;99.90
45729;DHT22;31439;53.512;10.206;2023-02-25T07:09:07;3.30;99.90
45729;DHT22;31439;53.512;10.206;2023-02-25T07:11:33;3.20;99.90
45729;DHT22;31439;53.512;10.206;2023-02-25T07:14:00;3.10;99.90
45729;DHT22;31439;53.512;10.206;2023-02-25T07:16:26;3.10;99.90
45729;DHT22;31439;53.512;10.206;2023-02-25T07:18:54;3.00;99.90
45729;DHT22;31439;53.512;10.206;2023-02-25T07:21:20;2.90;99.90
45729;DHT22;31439;53.512;10.206;2023-02-25T07:23:47;3.00;99.90
45729;DHT22;31439;53.512;10.206;2023-02-25T07:26:13;2.90;99.90
45729;DHT22;31439;53.512;10.206;2023-02-25T07:28:40;2.90;99.90
45729;DHT22;31439;53.512;10.206;2023-02-25T07:31:15;2.80;99.90
45729;DHT22;31439;53.512;10.206;2023-02-25T07:33:50;2.90;99.90
45729;DHT22;31439;53.512;10.206;2023-02-25T07:36:16;2.90;99.90
45729;DHT22;31439;53.512;10.206;2023-02-25T07:38:42;3.00;99.90
45729;DHT22;31439;53.512;10.206;2023-02-25T07:41:14;3.10;99.90
45729;DHT22;31439;53.512;10.206;2023-02-25T07:43:40;3.00;99.90
45729;DHT22;31439;53.512;10.206;2023-02-25T07:46:06;3.10;99.90
45729;DHT22;31439;53.512;10.206;2023-02-25T07:48:32;3.10;99.90
45729;DHT22;31439;53.512;10.206;2023-02-25T07:51:06;3.30;99.90
45729;DHT22;31439;53.512;10.206;2023-02-25T07:53:32;3.00;99.90
45729;DHT22;31439;53.512;10.206;2023-02-25T07:55:58;3.30;99.90
45729;DHT22;31439;53.512;10.206;2023-02-25T07:58:24;3.10;99.90
45729;DHT22;31439;53.512;10.206;2023-02-25T08:00:49;3.20;99.90
45729;DHT22;31439;53.512;10.206;2023-02-25T08:03:15;3.20;99.90
45729;DHT22;31439;53.512;10.206;2023-02-25T08:05:40;3.20;99.90
45729;DHT22;31439;53.512;10.206;2023-02-25T08:08:06;3.20;99.90
45729;DHT22;31439;53.512;10.206;2023-02-25T08:10:32;3.30;99.90
45729;DHT22;31439;53.512;10.206;2023-02-25T08:12:57;3.10;99.90
45729;DHT22;31439;53.512;10.206;2023-02-25T08:15:23;3.30;99.90
45729;DHT22;31439;53.512;10.206;2023-02-25T08:17:48;3.50;99.90
45729;DHT22;31439;53.512;10.206;2023-02-25T08:20:16;3.40;99.90
45729;DHT22;31439;53.512;10.206;2023-02-25T08:22:42;3.30;99.90
45729;DHT22;31439;53.512;10.206;2023-02-25T08:25:08;3.30;99.90
45729;DHT22;31439;53.512;10.206;2023-02-25T08:27:35;3.30;99.90
45729;DHT22;31439;53.512;10.206;2023-02-25T08:30:01;3.30;99.90
45729;DHT22;31439;53.512;10.206;2023-02-25T08:32:27;3.40;99.90
45729;DHT22;31439;53.512;10.206;2023-02-25T08:34:53;3.40;99.90
45729;DHT22;31439;53.512;10.206;2023-02-25T08:37:18;3.40;99.90
45729;DHT22;31439;53.512;10.206;2023-02-25T08:39:44;3.50;99.90
45729;DHT22;31439;53.512;10.206;2023-02-25T08:42:10;3.30;99.90
45729;DHT22;31439;53.512;10.206;2023-02-25T08:44:43;3.30;99.90
45729;DHT22;31439;53.512;10.206;2023-02-25T08:47:09;3.00;99.90
45729;DHT22;31439;53.512;10.206;2023-02-25T08:49:34;2.90;99.90
45729;DHT22;31439;53.512;10.206;2023-02-25T08:52:00;2.50;99.90
45729;DHT22;31439;53.512;10.206;2023-02-25T08:54:26;2.70;99.90
45729;DHT22;31439;53.512;10.206;2023-02-25T08:56:51;2.80;99.90
45729;DHT22;31439;53.512;10.206;2023-02-25T08:59:20;2.90;99.90
45729;DHT22;31439;53.512;10.206;2023-02-25T09:01:45;3.10;99.90
45729;DHT22;31439;53.512;10.206;2023-02-25T09:04:14;3.00;99.90
45729;DHT22;31439;53.512;10.206;2023-02-25T09:06:40;3.00;99.90
45729;DHT22;31439;53.512;10.206;2023-02-25T09:09:06;3.10;99.90
45729;DHT22;31439;53.512;10.206;2023-02-25T09:11:32;3.10;99.90
45729;DHT22;31439;53.512;10.206;2023-02-25T09:13:57;3.10;99.90
45729;DHT22;31439;53.512;10.206;2023-02-25T09:16:23;3.10;99.90
45729;DHT22;31439;53.512;10.206;2023-02-25T09:18:50;3.10;99.90
45729;DHT22;31439;53.512;10.206;2023-02-25T09:21:16;3.10;99.90
45729;DHT22;31439;53.512;10.206;2023-02-25T09:23:42;3.10;99.90
45729;DHT22;31439;53.512;10.206;2023-02-25T09:26:08;3.10;99.90
45729;DHT22;31439;53.512;10.206;2023-02-25T09:28:35;3.20;99.90
45729;DHT22;31439;53.512;10.206;2023-02-25T09:31:01;3.10;99.90
45729;DHT22;31439;53.512;10.206;2023-02-25T09:33:28;3.10;99.90
45729;DHT22;31439;53.512;10.206;2023-02-25T09:35:54;3.10;99.90
45729;DHT22;31439;53.512;10.206;2023-02-25T09:38:20;3.30;99.90
45729;DHT22;31439;53.512;10.206;2023-02-25T09:40:47;3.00;99.90
45729;DHT22;31439;53.512;10.206;2023-02-25T09:43:20;3.10;99.90
45729;DHT22;31439;53.512;10.206;2023-02-25T09:45:53;3.00;99.90
45729;DHT22;31439;53.512;10.206;2023-02-25T09:48:26;2.90;99.90
45729;DHT22;31439;53.512;10.206;2023-02-25T09:51:20;3.00;99.90
45729;DHT22;31439;53.512;10.206;2023-02-25T09:54:12;3.10;99.90
45729;DHT22;31439;53.512;10.206;2023-02-25T09:56:39;3.30;99.90
45729;DHT22;31439;53.512;10.206;2023-02-25T09:59:13;3.30;99.90
45729;DHT22;31439;53.512;10.206;2023-02-25T10:01:59;3.30;99.90
45729;DHT22;31439;53.512;10.206;2023-02-25T10:07:27;3.90;99.90
45729;DHT22;31439;53.512;10.206;2023-02-25T10:10:19;4.10;99.90
45729;DHT22;31439;53.512;10.206;2023-02-25T10:16:01;4.10;99.90
45729;DHT22;31439;53.512;10.206;2023-02-25T10:23:41;4.00;99.90
45729;DHT22;31439;53.512;10.206;2023-02-25T10:26:28;4.00;99.90
45729;DHT22;31439;53.512;10.206;2023-02-25T10:29:00;4.10;99.90
45729;DHT22;31439;53.512;10.206;2023-02-25T10:31:30;4.20;99.90
45729;DHT22;31439;53.512;10.206;2023-02-25T10:33:58;4.20;99.90
45729;DHT22;31439;53.512;10.206;2023-02-25T10:36:31;4.30;99.90
45729;DHT22;31439;53.512;10.206;2023-02-25T10:38:59;4.30;99.90
45729;DHT22;31439;53.512;10.206;2023-02-25T10:41:25;4.20;99.90
45729;DHT22;31439;53.512;10.206;2023-02-25T10:43:52;4.20;99.90
45729;DHT22;31439;53.512;10.206;2023-02-25T10:48:58;4.00;99.90
45729;DHT22;31439;53.512;10.206;2023-02-25T10:51:24;3.90;99.90
45729;DHT22;31439;53.512;10.206;2023-02-25T10:56:21;3.80;99.90
45729;DHT22;31439;53.512;10.206;2023-02-25T11:01:37;3.70;99.90
45729;DHT22;31439;53.512;10.206;2023-02-25T11:04:09;3.70;99.90
45729;DHT22;31439;53.512;10.206;2023-02-25T11:06:38;4.10;99.90
45729;DHT22;31439;53.512;10.206;2023-02-25T11:12:08;3.80;99.90
45729;DHT22;31439;53.512;10.206;2023-02-25T11:14:36;3.90;99.90
45729;DHT22;31439;53.512;10.206;2023-02-25T11:19:30;3.80;99.90
45729;DHT22;31439;53.512;10.206;2023-02-25T11:21:58;3.90;99.90
45729;DHT22;31439;53.512;10.206;2023-02-25T11:24:30;3.90;99.90
45729;DHT22;31439;53.512;10.206;2023-02-25T11:26:58;3.90;99.90
45729;DHT22;31439;53.512;10.206;2023-02-25T11:29:34;4.00;99.90
45729;DHT22;31439;53.512;10.206;2023-02-25T11:32:16;4.20;99.90
45729;DHT22;31439;53.512;10.206;2023-02-25T11:35:03;4.30;99.90
45729;DHT22;31439;53.512;10.206;2023-02-25T11:37:36;4.40;99.90
45729;DHT22;31439;53.512;10.206;2023-02-25T11:40:29;4.60;99.90
45729;DHT22;31439;53.512;10.206;2023-02-25T11:48:28;5.00;99.90
45729;DHT22;31439;53.512;10.206;2023-02-25T11:56:50;4.50;99.90
45729;DHT22;31439;53.512;10.206;2023-02-25T11:59:34;4.60;99.90
45729;DHT22;31439;53.512;10.206;2023-02-25T12:02:38;4.80;99.90
45729;DHT22;31439;53.512;10.206;2023-02-25T12:13:06;6.20;99.90
45729;DHT22;31439;53.512;10.206;2023-02-25T12:35:16;5.80;99.90
45729;DHT22;31439;53.512;10.206;2023-02-25T12:37:52;6.10;99.90
45729;DHT22;31439;53.512;10.206;2023-02-25T12:40:35;6.10;99.90
45729;DHT22;31439;53.512;10.206;2023-02-25T12:43:14;6.10;99.90
45729;DHT22;31439;53.512;10.206;2023-02-25T12:45:59;6.00;99.90
45729;DHT22;31439;53.512;10.206;2023-02-25T13:03:29;6.40;99.90
45729;DHT22;31439;53.512;10.206;2023-02-25T13:08:52;6.70;99.90
45729;DHT22;31439;53.512;10.206;2023-02-25T13:35:00;6.30;99.90
45729;DHT22;31439;53.512;10.206;2023-02-25T13:37:01;6.30;99.90
45729;DHT22;31439;53.512;10.206;2023-02-25T13:42:31;6.30;99.90
45729;DHT22;31439;53.512;10.206;2023-02-25T13:48:04;5.90;99.90
45729;DHT22;31439;53.512;10.206;2023-02-25T13:59:29;6.20;99.90
45729;DHT22;31439;53.512;10.206;2023-02-25T14:02:11;6.20;99.90
45729;DHT22;31439;53.512;10.206;2023-02-25T14:26:52;5.80;99.90
45729;DHT22;31439;53.512;10.206;2023-02-25T14:40:24;6.40;99.90
45729;DHT22;31439;53.512;10.206;2023-02-25T14:45:22;6.40;99.90
45729;DHT22;31439;53.512;10.206;2023-02-25T14:51:01;7.00;99.90
45729;DHT22;31439;53.512;10.206;2023-02-25T14:53:52;6.40;99.90
45729;DHT22;31439;53.512;10.206;2023-02-25T15:10:33;5.50;99.90
45729;DHT22;31439;53.512;10.206;2023-02-25T15:20:57;5.60;99.90
45729;DHT22;31439;53.512;10.206;2023-02-25T15:23:43;5.70;99.90
45729;DHT22;31439;53.512;10.206;2023-02-25T15:26:40;6.30;99.90
45729;DHT22;31439;53.512;10.206;2023-02-25T15:32:21;5.50;99.90
45729;DHT22;31439;53.512;10.206;2023-02-25T15:35:05;5.20;99.90
45729;DHT22;31439;53.512;10.206;2023-02-25T15:37:36;5.00;99.90
45729;DHT22;31439;53.512;10.206;2023-02-25T15:42:54;4.90;99.90
45729;DHT22;31439;53.512;10.206;2023-02-25T15:50:52;4.60;99.90
45729;DHT22;31439;53.512;10.206;2023-02-25T16:01:01;4.80;99.90
45729;DHT22;31439;53.512;10.206;2023-02-25T16:03:37;4.80;99.90
45729;DHT22;31439;53.512;10.206;2023-02-25T16:06:20;4.90;99.90
45729;DHT22;31439;53.512;10.206;2023-02-25T16:09:37;4.80;99.90
45729;DHT22;31439;53.512;10.206;2023-02-25T16:11:49;4.60;99.90
45729;DHT22;31439;53.512;10.206;2023-02-25T16:14:39;4.70;99.90
45729;DHT22;31439;53.512;10.206;2023-02-25T16:17:19;4.60;99.90
45729;DHT22;31439;53.512;10.206;2023-02-25T16:22:42;4.40;99.90
45729;DHT22;31439;53.512;10.206;2023-02-25T16:25:13;4.40;99.90
45729;DHT22;31439;53.512;10.206;2023-02-25T16:30:32;4.30;99.90
45729;DHT22;31439;53.512;10.206;2023-02-25T16:40:48;4.00;99.90
45729;DHT22;31439;53.512;10.206;2023-02-25T16:43:26;3.90;99.90
45729;DHT22;31439;53.512;10.206;2023-02-25T16:46:02;3.90;99.90
45729;DHT22;31439;53.512;10.206;2023-02-25T16:48:44;3.90;99.90
45729;DHT22;31439;53.512;10.206;2023-02-25T16:51:20;3.90;99.90
45729;DHT22;31439;53.512;10.206;2023-02-25T16:53:50;4.00;99.90
45729;DHT22;31439;53.512;10.206;2023-02-25T16:56:21;3.90;99.90
45729;DHT22;31439;53.512;10.206;2023-02-25T16:58:59;3.80;99.90
45729;DHT22;31439;53.512;10.206;2023-02-25T17:01:27;3.80;99.90
45729;DHT22;31439;53.512;10.206;2023-02-25T17:04:20;3.70;99.90
45729;DHT22;31439;53.512;10.206;2023-02-25T17:07:09;3.70;99.90
45729;DHT22;31439;53.512;10.206;2023-02-25T17:09:42;3.70;99.90
45729;DHT22;31439;53.512;10.206;2023-02-25T17:12:34;3.90;99.90
45729;DHT22;31439;53.512;10.206;2023-02-25T17:15:00;3.60;99.90
45729;DHT22;31439;53.512;10.206;2023-02-25T17:17:32;3.70;99.90
45729;DHT22;31439;53.512;10.206;2023-02-25T17:20:00;3.50;99.90
45729;DHT22;31439;53.512;10.206;2023-02-25T17:22:26;3.50;99.90
45729;DHT22;31439;53.512;10.206;2023-02-25T17:24:54;3.80;99.90
45729;DHT22;31439;53.512;10.206;2023-02-25T17:27:21;3.40;99.90
45729;DHT22;31439;53.512;10.206;2023-02-25T17:29:48;3.40;99.90
45729;DHT22;31439;53.512;10.206;2023-02-25T17:32:21;3.40;99.90
45729;DHT22;31439;53.512;10.206;2023-02-25T17:34:49;3.40;99.90
45729;DHT22;31439;53.512;10.206;2023-02-25T17:37:16;3.40;99.90
45729;DHT22;31439;53.512;10.206;2023-02-25T17:39:42;3.30;99.90
45729;DHT22;31439;53.512;10.206;2023-02-25T17:44:55;3.40;99.90
45729;DHT22;31439;53.512;10.206;2023-02-25T17:47:27;3.40;99.90
45729;DHT22;31439;53.512;10.206;2023-02-25T17:49:54;3.40;99.90
45729;DHT22;31439;53.512;10.206;2023-02-25T17:52:23;3.30;99.90
45729;DHT22;31439;53.512;10.206;2023-02-25T17:55:19;3.40;99.90
45729;DHT22;31439;53.512;10.206;2023-02-25T17:57:45;3.40;99.90
45729;DHT22;31439;53.512;10.206;2023-02-25T18:00:22;3.30;99.90
45729;DHT22;31439;53.512;10.206;2023-02-25T18:03:20;3.40;99.90
45729;DHT22;31439;53.512;10.206;2023-02-25T18:05:50;3.30;99.90
45729;DHT22;31439;53.512;10.206;2023-02-25T18:08:24;3.20;99.90
45729;DHT22;31439;53.512;10.206;2023-02-25T18:16:55;3.30;99.90
45729;DHT22;31439;53.512;10.206;2023-02-25T18:19:34;2.90;99.90
45729;DHT22;31439;53.512;10.206;2023-02-25T18:22:01;3.30;99.90
45729;DHT22;31439;53.512;10.206;2023-02-25T18:24:32;3.30;99.90
45729;DHT22;31439;53.512;10.206;2023-02-25T18:29:28;3.20;99.90
45729;DHT22;31439;53.512;10.206;2023-02-25T18:31:54;3.10;99.90
45729;DHT22;31439;53.512;10.206;2023-02-25T18:34:20;3.30;99.90
45729;DHT22;31439;53.512;10.206;2023-02-25T18:36:45;3.10;99.90
45729;DHT22;31439;53.512;10.206;2023-02-25T18:39:11;3.10;99.90
45729;DHT22;31439;53.512;10.206;2023-02-25T18:41:37;3.90;99.90
45729;DHT22;31439;53.512;10.206;2023-02-25T18:44:07;3.60;99.90
45729;DHT22;31439;53.512;10.206;2023-02-25T18:46:33;3.40;99.90
45729;DHT22;31439;53.512;10.206;2023-02-25T18:48:59;3.40;99.90
45729;DHT22;31439;53.512;10.206;2023-02-25T18:51:25;3.20;99.90
45729;DHT22;31439;53.512;10.206;2023-02-25T18:53:51;3.10;99.90
45729;DHT22;31439;53.512;10.206;2023-02-25T18:56:17;3.20;99.90
45729;DHT22;31439;53.512;10.206;2023-02-25T18:58:42;3.00;99.90
45729;DHT22;31439;53.512;10.206;2023-02-25T19:01:20;2.80;99.90
45729;DHT22;31439;53.512;10.206;2023-02-25T19:03:48;2.70;99.90
45729;DHT22;31439;53.512;10.206;2023-02-25T19:06:14;2.70;99.90
45729;DHT22;31439;53.512;10.206;2023-02-25T19:08:39;2.80;99.90
45729;DHT22;31439;53.512;10.206;2023-02-25T19:11:05;2.70;99.90
45729;DHT22;31439;53.512;10.206;2023-02-25T19:13:39;2.70;99.90
45729;DHT22;31439;53.512;10.206;2023-02-25T19:16:06;2.60;99.90
45729;DHT22;31439;53.512;10.206;2023-02-25T19:18:32;2.60;99.90
45729;DHT22;31439;53.512;10.206;2023-02-25T19:20:58;2.50;99.90
45729;DHT22;31439;53.512;10.206;2023-02-25T19:23:24;2.80;99.90
45729;DHT22;31439;53.512;10.206;2023-02-25T19:25:55;2.50;99.90
45729;DHT22;31439;53.512;10.206;2023-02-25T19:28:22;2.30;99.90
45729;DHT22;31439;53.512;10.206;2023-02-25T19:30:48;2.50;99.90
45729;DHT22;31439;53.512;10.206;2023-02-25T19:33:14;2.30;99.90
45729;DHT22;31439;53.512;10.206;2023-02-25T19:35:41;2.30;99.90
45729;DHT22;31439;53.512;10.206;2023-02-25T19:38:15;2.20;99.90
45729;DHT22;31439;53.512;10.206;2023-02-25T19:40:41;2.10;99.90
45729;DHT22;31439;53.512;10.206;2023-02-25T19:43:08;2.30;99.90
45729;DHT22;31439;53.512;10.206;2023-02-25T19:45:34;2.20;99.90
45729;DHT22;31439;53.512;10.206;2023-02-25T19:48:00;2.10;99.90
45729;DHT22;31439;53.512;10.206;2023-02-25T19:50:27;2.00;99.90
45729;DHT22;31439;53.512;10.206;2023-02-25T19:52:53;2.00;99.90
45729;DHT22;31439;53.512;10.206;2023-02-25T19:55:19;2.00;99.90